createdAt,value
2023-06-10T00:01:56.214Z,6.10
2023-06-10T00:04:23.333Z,6.20
2023-06-10T00:06:50.629Z,6.57
2023-06-10T00:09:17.429Z,6.37
2023-06-10T00:11:44.187Z,6.27
2023-06-10T00:14:10.939Z,5.97
2023-06-10T00:16:37.816Z,6.53
2023-06-10T00:19:04.763Z,6.00
2023-06-10T00:21:38.176Z,5.90
2023-06-10T00:24:06.476Z,6.00
2023-06-10T00:26:34.004Z,6.30
2023-06-10T00:29:00.722Z,5.77
2023-06-10T00:31:28.556Z,5.70
2023-06-10T00:33:55.514Z,5.73
2023-06-10T00:36:22.220Z,5.87
2023-06-10T00:38:49.799Z,6.37
2023-06-10T00:41:16.495Z,6.13
2023-06-10T00:43:45.152Z,6.63
2023-06-10T00:46:13.198Z,6.23
2023-06-10T00:48:41.342Z,5.63
2023-06-10T00:51:10.129Z,6.53
2023-06-10T00:53:38.908Z,5.90
2023-06-10T00:56:05.712Z,5.77
2023-06-10T00:58:32.515Z,5.60
2023-06-10T01:00:59.204Z,6.43
2023-06-10T01:03:29.015Z,6.00
2023-06-10T01:06:07.360Z,5.60
2023-06-10T01:08:49.438Z,5.60
2023-06-10T01:11:20.565Z,6.33
2023-06-10T01:13:49.057Z,6.30
2023-06-10T01:16:15.868Z,6.47
2023-06-10T01:18:43.633Z,6.07
2023-06-10T01:21:14.144Z,5.80
2023-06-10T01:23:41.101Z,6.63
2023-06-10T01:26:09.980Z,6.43
2023-06-10T01:28:36.983Z,7.67
2023-06-10T01:31:03.745Z,6.77
2023-06-10T01:33:32.589Z,6.63
2023-06-10T01:35:59.646Z,6.97
2023-06-10T01:38:40.458Z,6.67
2023-06-10T01:41:07.817Z,6.43
2023-06-10T01:43:35.229Z,7.60
2023-06-10T01:46:01.969Z,6.90
2023-06-10T01:48:28.650Z,6.93
2023-06-10T01:50:56.985Z,6.67
2023-06-10T01:53:24.076Z,6.77
2023-06-10T01:55:50.826Z,7.00
2023-06-10T01:58:17.696Z,6.83
2023-06-10T02:00:45.268Z,6.93
2023-06-10T02:03:12.178Z,7.13
2023-06-10T02:05:39.080Z,6.80
2023-06-10T02:08:06.199Z,6.47
2023-06-10T02:10:32.924Z,6.33
2023-06-10T02:12:59.696Z,6.60
2023-06-10T02:15:26.646Z,6.33
2023-06-10T02:17:53.753Z,7.00
2023-06-10T02:20:20.596Z,6.50
2023-06-10T02:22:47.346Z,6.53
2023-06-10T02:25:14.028Z,6.50
2023-06-10T02:27:40.696Z,6.37
2023-06-10T02:30:07.877Z,6.20
2023-06-10T02:32:36.197Z,6.67
2023-06-10T02:35:03.576Z,6.57
2023-06-10T02:37:31.265Z,6.70
2023-06-10T02:39:58.357Z,6.50
2023-06-10T02:42:25.510Z,6.17
2023-06-10T02:44:52.786Z,6.13
2023-06-10T02:47:33.064Z,6.47
2023-06-10T02:49:59.997Z,6.23
2023-06-10T02:52:26.977Z,6.20
2023-06-10T02:54:53.666Z,6.57
2023-06-10T02:57:20.976Z,6.00
2023-06-10T02:59:47.910Z,6.67
2023-06-10T03:02:14.849Z,6.47
2023-06-10T03:04:47.356Z,6.20
2023-06-10T03:07:17.496Z,5.77
2023-06-10T03:09:45.851Z,6.47
2023-06-10T03:12:14.168Z,6.90
2023-06-10T03:14:45.388Z,7.30
2023-06-10T03:17:12.199Z,6.67
2023-06-10T03:19:41.900Z,7.23
2023-06-10T03:22:12.443Z,8.00
2023-06-10T03:24:51.211Z,7.37
2023-06-10T03:27:18.735Z,6.73
2023-06-10T03:29:49.101Z,7.07
2023-06-10T03:32:17.128Z,7.13
2023-06-10T03:34:46.004Z,7.27
2023-06-10T03:37:13.518Z,6.87
2023-06-10T03:39:40.547Z,6.57
2023-06-10T03:42:07.717Z,6.53
2023-06-10T03:44:34.942Z,6.90
2023-06-10T03:47:01.751Z,6.77
2023-06-10T03:49:30.671Z,6.57
2023-06-10T03:52:00.623Z,7.10
2023-06-10T03:54:27.761Z,6.90
2023-06-10T03:56:54.489Z,6.67
2023-06-10T03:59:21.369Z,6.70
2023-06-10T04:01:48.149Z,6.83
2023-06-10T04:04:17.485Z,7.17
2023-06-10T04:06:45.427Z,7.10
2023-06-10T04:09:12.276Z,7.23
2023-06-10T04:11:40.089Z,7.30
2023-06-10T04:14:07.410Z,6.93
2023-06-10T04:16:34.907Z,7.03
2023-06-10T04:19:01.865Z,7.30
2023-06-10T04:21:29.201Z,7.27
2023-06-10T04:23:56.003Z,7.43
2023-06-10T04:26:23.093Z,7.30
2023-06-10T04:28:51.720Z,7.67
2023-06-10T04:31:18.927Z,7.10
2023-06-10T04:33:46.527Z,7.53
2023-06-10T04:36:13.399Z,6.70
2023-06-10T04:38:41.736Z,7.50
2023-06-10T04:41:09.090Z,7.10
2023-06-10T04:43:37.771Z,6.67
2023-06-10T04:46:07.891Z,7.13
2023-06-10T04:48:36.786Z,7.13
2023-06-10T04:51:04.078Z,7.90
2023-06-10T04:53:30.829Z,6.80
2023-06-10T04:55:58.728Z,7.63
2023-06-10T04:58:25.902Z,6.90
2023-06-10T05:00:52.560Z,7.53
2023-06-10T05:03:19.304Z,6.93
2023-06-10T05:05:46.196Z,7.03
2023-06-10T05:08:13.051Z,7.37
2023-06-10T05:10:40.372Z,7.27
2023-06-10T05:13:07.044Z,7.53
2023-06-10T05:15:33.953Z,7.43
2023-06-10T05:18:03.624Z,6.97
2023-06-10T05:20:30.883Z,6.67
2023-06-10T05:22:57.576Z,6.97
2023-06-10T05:25:24.898Z,7.27
2023-06-10T05:27:51.609Z,6.80
2023-06-10T05:30:19.778Z,7.13
2023-06-10T05:32:46.586Z,6.53
2023-06-10T05:35:13.327Z,7.20
2023-06-10T05:37:40.030Z,6.27
2023-06-10T05:40:07.131Z,7.33
2023-06-10T05:42:33.849Z,7.10
2023-06-10T05:45:00.646Z,7.67
2023-06-10T05:47:27.382Z,6.93
2023-06-10T05:49:54.306Z,6.87
2023-06-10T05:52:21.145Z,7.40
2023-06-10T05:54:47.918Z,7.07
2023-06-10T05:57:14.727Z,6.30
2023-06-10T05:59:41.492Z,6.80
2023-06-10T06:02:08.266Z,7.33
2023-06-10T06:04:35.346Z,6.77
2023-06-10T06:07:02.120Z,6.67
2023-06-10T06:09:28.820Z,6.90
2023-06-10T06:11:55.758Z,6.73
2023-06-10T06:14:22.522Z,6.30
2023-06-10T06:16:49.274Z,6.90
2023-06-10T06:19:16.867Z,7.13
2023-06-10T06:21:43.635Z,6.67
2023-06-10T06:24:10.519Z,6.47
2023-06-10T06:26:37.454Z,6.93
2023-06-10T06:29:04.148Z,6.63
2023-06-10T06:31:31.049Z,6.53
2023-06-10T06:33:57.985Z,6.80
2023-06-10T06:36:24.652Z,6.50
2023-06-10T06:38:51.414Z,6.33
2023-06-10T06:41:18.838Z,6.30
2023-06-10T06:43:45.517Z,6.07
2023-06-10T06:46:31.214Z,6.77
2023-06-10T06:48:58.027Z,6.40
2023-06-10T06:51:24.802Z,6.53
2023-06-10T06:53:52.246Z,6.60
2023-06-10T06:56:18.958Z,6.10
2023-06-10T06:58:45.669Z,6.60
2023-06-10T07:01:12.444Z,6.40
2023-06-10T07:03:39.182Z,6.03
2023-06-10T07:06:06.076Z,6.40
2023-06-10T07:08:32.818Z,5.60
2023-06-10T07:10:59.566Z,5.93
2023-06-10T07:13:26.229Z,6.20
2023-06-10T07:15:52.944Z,5.60
2023-06-10T07:18:19.664Z,5.87
2023-06-10T07:20:46.436Z,5.83
2023-06-10T07:23:13.184Z,5.30
2023-06-10T07:25:39.874Z,5.83
2023-06-10T07:28:06.657Z,5.83
2023-06-10T07:30:33.425Z,5.50
2023-06-10T07:33:00.331Z,5.73
2023-06-10T07:35:27.086Z,6.20
2023-06-10T07:37:53.833Z,5.40
2023-06-10T07:40:20.503Z,5.40
2023-06-10T07:42:47.170Z,5.80
2023-06-10T07:45:13.858Z,5.27
2023-06-10T07:47:40.620Z,5.90
2023-06-10T07:50:07.601Z,5.10
2023-06-10T07:52:34.324Z,5.03
2023-06-10T07:55:01.240Z,5.10
2023-06-10T07:57:28.019Z,4.83
2023-06-10T07:59:56.016Z,4.60
2023-06-10T08:02:24.831Z,4.70
2023-06-10T08:04:52.474Z,4.77
2023-06-10T08:07:19.996Z,5.10
2023-06-10T08:09:46.692Z,4.83
2023-06-10T08:12:13.458Z,5.20
2023-06-10T08:14:42.476Z,4.77
2023-06-10T08:17:09.216Z,4.53
2023-06-10T08:19:35.917Z,4.73
2023-06-10T08:22:02.683Z,5.13
2023-06-10T08:24:29.423Z,4.70
2023-06-10T08:26:58.036Z,4.93
2023-06-10T08:29:24.926Z,4.47
2023-06-10T08:31:51.716Z,4.37
2023-06-10T08:34:18.525Z,4.17
2023-06-10T08:36:46.658Z,4.20
2023-06-10T08:39:13.679Z,4.70
2023-06-10T08:41:43.584Z,4.43
2023-06-10T08:44:16.327Z,4.20
2023-06-10T08:46:46.001Z,4.10
2023-06-10T08:49:16.653Z,4.30
2023-06-10T08:51:43.901Z,3.93
2023-06-10T08:54:16.310Z,3.87
2023-06-10T08:56:44.045Z,3.90
2023-06-10T08:59:11.425Z,4.03
2023-06-10T09:01:39.013Z,3.73
2023-06-10T09:04:05.834Z,3.87
2023-06-10T09:06:34.084Z,3.43
2023-06-10T09:09:03.683Z,3.97
2023-06-10T09:11:31.100Z,3.80
2023-06-10T09:13:57.921Z,3.23
2023-06-10T09:16:25.636Z,3.70
2023-06-10T09:18:55.919Z,3.80
2023-06-10T09:21:23.836Z,3.97
2023-06-10T09:23:50.848Z,4.10
2023-06-10T09:26:18.020Z,3.60
2023-06-10T09:28:45.673Z,4.50
2023-06-10T09:31:12.746Z,4.00
2023-06-10T09:33:42.487Z,4.33
2023-06-10T09:36:09.326Z,3.77
2023-06-10T09:38:36.193Z,4.10
2023-06-10T09:41:03.711Z,4.13
2023-06-10T09:43:44.876Z,4.57
2023-06-10T09:46:18.492Z,4.70
2023-06-10T09:48:46.225Z,4.13
2023-06-10T09:51:13.756Z,4.23
2023-06-10T09:53:40.733Z,4.30
2023-06-10T09:56:10.368Z,4.50
2023-06-10T09:58:43.183Z,4.30
2023-06-10T10:01:10.995Z,4.30
2023-06-10T10:03:47.707Z,4.73
2023-06-10T10:06:15.938Z,4.40
2023-06-10T10:08:42.693Z,4.43
2023-06-10T10:11:09.843Z,4.40
2023-06-10T10:13:36.690Z,4.47
2023-06-10T10:16:05.585Z,4.07
2023-06-10T10:18:32.581Z,4.40
2023-06-10T10:21:01.789Z,4.63
2023-06-10T10:23:43.147Z,4.80
2023-06-10T10:26:11.263Z,4.73
2023-06-10T10:28:56.797Z,4.33
2023-06-10T10:31:24.093Z,4.80
2023-06-10T10:34:00.758Z,4.60
2023-06-10T10:36:28.527Z,4.10
2023-06-10T10:38:55.637Z,3.90
2023-06-10T10:41:22.998Z,4.00
2023-06-10T10:43:50.606Z,4.00
2023-06-10T10:46:18.230Z,4.30
2023-06-10T10:48:45.407Z,4.10
2023-06-10T10:51:12.290Z,4.87
2023-06-10T10:53:39.921Z,4.50
2023-06-10T10:56:08.307Z,4.10
2023-06-10T10:58:35.399Z,4.43
2023-06-10T11:01:11.067Z,4.63
2023-06-10T11:03:43.154Z,4.70
2023-06-10T11:06:13.368Z,4.90
2023-06-10T11:08:40.353Z,4.50
2023-06-10T11:11:21.920Z,4.30
2023-06-10T11:14:05.267Z,4.80
2023-06-10T11:16:38.997Z,4.43
2023-06-10T11:19:05.706Z,5.40
2023-06-10T11:21:32.527Z,4.60
2023-06-10T11:24:00.089Z,4.83
2023-06-10T11:26:28.018Z,5.00
2023-06-10T11:28:54.987Z,4.63
2023-06-10T11:31:23.103Z,4.47
2023-06-10T11:33:56.881Z,4.73
2023-06-10T11:36:24.087Z,4.90
2023-06-10T11:38:53.798Z,4.70
2023-06-10T11:41:22.024Z,4.37
2023-06-10T11:43:48.762Z,3.70
2023-06-10T11:46:15.592Z,3.93
2023-06-10T11:48:55.648Z,3.83
2023-06-10T11:51:22.518Z,3.40
2023-06-10T11:53:49.666Z,3.67
2023-06-10T11:56:29.587Z,4.00
2023-06-10T11:59:09.009Z,3.90
2023-06-10T12:01:44.406Z,4.23
2023-06-10T12:04:12.770Z,4.10
2023-06-10T12:06:42.854Z,4.50
2023-06-10T12:09:25.384Z,4.47
2023-06-10T12:12:01.462Z,4.40
2023-06-10T12:14:48.525Z,3.90
2023-06-10T12:17:16.194Z,3.90
2023-06-10T12:19:43.314Z,3.90
2023-06-10T12:22:10.108Z,3.80
2023-06-10T12:24:45.546Z,3.90
2023-06-10T12:27:12.980Z,3.43
2023-06-10T12:29:39.661Z,4.00
2023-06-10T12:32:08.440Z,3.87
2023-06-10T12:34:36.638Z,4.00
2023-06-10T12:37:05.014Z,3.60
2023-06-10T12:39:32.688Z,3.70
2023-06-10T12:41:59.899Z,3.70
2023-06-10T12:44:33.499Z,3.93
2023-06-10T12:47:00.271Z,3.77
2023-06-10T12:49:27.458Z,3.60
2023-06-10T12:51:54.761Z,3.40
2023-06-10T12:54:21.427Z,3.37
2023-06-10T12:56:48.668Z,3.20
2023-06-10T12:59:15.582Z,3.40
2023-06-10T13:01:42.476Z,3.33
2023-06-10T13:04:09.398Z,3.60
2023-06-10T13:06:39.928Z,3.63
2023-06-10T13:09:07.831Z,3.90
2023-06-10T13:11:34.646Z,3.90
2023-06-10T13:14:01.559Z,3.37
2023-06-10T13:16:28.275Z,3.33
2023-06-10T13:18:55.054Z,3.43
2023-06-10T13:21:22.280Z,3.67
2023-06-10T13:23:49.053Z,3.57
2023-06-10T13:26:17.374Z,3.30
2023-06-10T13:28:44.490Z,7.93
2023-06-10T13:31:11.680Z,3.33
2023-06-10T13:33:38.740Z,3.57
2023-06-10T13:36:05.558Z,3.97
2023-06-10T13:38:32.339Z,3.20
2023-06-10T13:41:00.014Z,3.47
2023-06-10T13:43:27.802Z,3.03
2023-06-10T13:45:54.631Z,3.00
2023-06-10T13:48:21.437Z,2.97
2023-06-10T13:50:48.264Z,3.07
2023-06-10T13:53:15.685Z,2.97
2023-06-10T13:55:42.455Z,2.77
2023-06-10T13:58:09.223Z,3.33
2023-06-10T14:00:35.906Z,2.80
2023-06-10T14:03:04.318Z,2.80
2023-06-10T14:05:32.164Z,2.70
2023-06-10T14:07:59.098Z,3.43
2023-06-10T14:10:25.944Z,2.80
2023-06-10T14:12:52.698Z,3.17
2023-06-10T14:15:19.498Z,2.93
2023-06-10T14:17:46.314Z,3.27
2023-06-10T14:20:13.071Z,3.03
2023-06-10T14:22:39.800Z,3.10
2023-06-10T14:25:07.387Z,2.80
2023-06-10T14:27:34.341Z,3.10
2023-06-10T14:30:01.066Z,2.87
2023-06-10T14:32:27.962Z,2.70
2023-06-10T14:34:54.966Z,2.80
2023-06-10T14:37:21.805Z,2.80
2023-06-10T14:39:48.547Z,2.80
2023-06-10T14:42:18.110Z,2.70
2023-06-10T14:44:45.000Z,2.30
2023-06-10T14:47:11.929Z,2.50
2023-06-10T14:49:38.842Z,2.83
2023-06-10T14:52:05.792Z,2.67
2023-06-10T14:54:32.481Z,2.73
2023-06-10T14:56:59.255Z,2.70
2023-06-10T14:59:26.066Z,2.70
2023-06-10T15:01:53.207Z,2.73
2023-06-10T15:04:23.769Z,2.67
2023-06-10T15:06:51.650Z,3.00
2023-06-10T15:09:18.459Z,2.63
2023-06-10T15:11:45.313Z,3.10
2023-06-10T15:14:12.108Z,3.00
2023-06-10T15:16:38.962Z,3.00
2023-06-10T15:19:07.693Z,2.97
2023-06-10T15:21:35.118Z,3.30
2023-06-10T15:24:01.962Z,3.30
2023-06-10T15:26:28.786Z,3.83
2023-06-10T15:28:55.499Z,3.93
2023-06-10T15:31:22.314Z,3.67
2023-06-10T15:33:49.246Z,3.73
2023-06-10T15:36:16.073Z,3.90
2023-06-10T15:38:42.906Z,4.07
2023-06-10T15:41:09.612Z,4.00
2023-06-10T15:43:36.579Z,4.10
2023-06-10T15:46:03.349Z,3.80
2023-06-10T15:48:30.052Z,3.70
2023-06-10T15:50:56.726Z,3.77
2023-06-10T15:53:23.476Z,4.00
2023-06-10T15:55:50.235Z,4.40
2023-06-10T15:58:17.039Z,4.13
2023-06-10T16:00:43.727Z,5.00
2023-06-10T16:03:10.625Z,5.00
2023-06-10T16:05:37.496Z,5.10
2023-06-10T16:08:04.324Z,4.70
2023-06-10T16:10:31.065Z,4.70
2023-06-10T16:12:57.770Z,5.40
2023-06-10T16:15:24.474Z,4.93
2023-06-10T16:17:51.169Z,5.40
2023-06-10T16:20:17.932Z,6.03
2023-06-10T16:22:44.675Z,5.93
2023-06-10T16:25:11.844Z,6.03
2023-06-10T16:27:38.971Z,6.20
2023-06-10T16:30:06.324Z,6.97
2023-06-10T16:32:33.124Z,6.80
2023-06-10T16:34:59.889Z,6.80
2023-06-10T16:37:26.591Z,6.10
2023-06-10T16:39:53.296Z,6.30
2023-06-10T16:42:19.952Z,6.30
2023-06-10T16:44:46.664Z,6.43
2023-06-10T16:47:13.438Z,7.20
2023-06-10T16:49:40.238Z,6.53
2023-06-10T16:52:07.124Z,6.30
2023-06-10T16:54:33.858Z,7.10
2023-06-10T16:57:00.646Z,6.73
2023-06-10T16:59:27.429Z,6.50
2023-06-10T17:01:54.408Z,7.30
2023-06-10T17:04:21.157Z,6.37
2023-06-10T17:06:48.119Z,5.80
2023-06-10T17:09:14.779Z,5.57
2023-06-10T17:11:41.647Z,5.67
2023-06-10T17:14:08.445Z,4.80
2023-06-10T17:16:35.266Z,4.47
2023-06-10T17:19:01.947Z,5.50
2023-06-10T17:21:28.692Z,5.70
2023-06-10T17:23:55.646Z,5.47
2023-06-10T17:26:23.033Z,5.87
2023-06-10T17:28:49.744Z,5.90
2023-06-10T17:31:16.446Z,5.93
2023-06-10T17:33:43.179Z,6.00
2023-06-10T17:36:09.889Z,6.50
2023-06-10T17:38:36.636Z,6.03
2023-06-10T17:41:03.331Z,6.00
2023-06-10T17:43:29.993Z,5.77
2023-06-10T17:45:59.641Z,5.97
2023-06-10T17:48:26.384Z,5.73
2023-06-10T17:50:53.110Z,6.00
2023-06-10T17:53:19.879Z,5.90
2023-06-10T17:55:46.561Z,5.73
2023-06-10T17:58:13.219Z,6.53
2023-06-10T18:00:39.885Z,6.43
2023-06-10T18:03:06.702Z,5.77
2023-06-10T18:05:33.528Z,6.37
2023-06-10T18:08:00.321Z,5.80
2023-06-10T18:10:27.071Z,6.00
2023-06-10T18:12:53.816Z,6.13
2023-06-10T18:15:20.522Z,6.33
2023-06-10T18:17:47.253Z,6.10
2023-06-10T18:20:14.417Z,6.43
2023-06-10T18:22:41.409Z,6.20
2023-06-10T18:25:08.761Z,5.70
2023-06-10T18:27:36.033Z,5.57
2023-06-10T18:30:02.808Z,5.93
2023-06-10T18:32:29.601Z,6.40
2023-06-10T18:34:56.353Z,6.67
2023-06-10T18:37:23.078Z,5.93
2023-06-10T18:39:50.596Z,5.60
2023-06-10T18:42:17.378Z,5.80
2023-06-10T18:44:44.128Z,6.23
2023-06-10T18:47:10.819Z,5.93
2023-06-10T18:49:38.388Z,6.77
2023-06-10T18:52:06.392Z,5.97
2023-06-10T18:54:34.601Z,5.80
2023-06-10T18:57:01.329Z,5.60
2023-06-10T18:59:28.044Z,5.73
2023-06-10T19:01:54.800Z,5.67
2023-06-10T19:04:21.574Z,5.50
2023-06-10T19:06:48.788Z,6.10
2023-06-10T19:09:15.491Z,5.60
2023-06-10T19:11:42.234Z,5.43
2023-06-10T19:14:09.309Z,6.07
2023-06-10T19:16:36.302Z,5.13
2023-06-10T19:19:03.075Z,5.50
2023-06-10T19:21:29.755Z,5.63
2023-06-10T19:23:56.543Z,7.63
2023-06-10T19:26:23.337Z,6.00
2023-06-10T19:28:50.300Z,5.30
2023-06-10T19:31:17.004Z,5.57
2023-06-10T19:33:43.830Z,5.60
2023-06-10T19:36:10.634Z,5.50
2023-06-10T19:38:37.399Z,6.10
2023-06-10T19:41:05.083Z,5.93
2023-06-10T19:43:31.889Z,6.00
2023-06-10T19:45:58.535Z,6.00
2023-06-10T19:48:25.385Z,5.60
2023-06-10T19:50:52.134Z,5.93
2023-06-10T19:53:18.892Z,6.00
2023-06-10T19:55:46.926Z,5.73
2023-06-10T19:58:13.706Z,5.77
2023-06-10T20:00:40.728Z,6.03
2023-06-10T20:03:08.007Z,6.23
2023-06-10T20:05:34.897Z,5.97
2023-06-10T20:08:01.720Z,5.67
2023-06-10T20:10:28.659Z,5.67
2023-06-10T20:12:57.054Z,5.67
2023-06-10T20:15:23.819Z,6.30
2023-06-10T20:17:52.746Z,6.13
2023-06-10T20:20:19.808Z,6.07
2023-06-10T20:22:47.207Z,6.27
2023-06-10T20:25:14.531Z,6.17
2023-06-10T20:27:41.660Z,5.60
2023-06-10T20:30:08.862Z,5.80
2023-06-10T20:32:35.827Z,5.80
2023-06-10T20:35:02.590Z,5.47
2023-06-10T20:37:29.365Z,5.10
2023-06-10T20:39:56.089Z,5.90
2023-06-10T20:42:22.900Z,5.67
2023-06-10T20:44:49.646Z,5.37
2023-06-10T20:47:16.340Z,6.17
2023-06-10T20:49:43.052Z,5.37
2023-06-10T20:52:09.775Z,6.00
2023-06-10T20:54:36.444Z,5.67
2023-06-10T20:57:03.240Z,5.07
2023-06-10T20:59:29.914Z,5.47
2023-06-10T21:01:56.692Z,5.13
2023-06-10T21:04:23.551Z,4.57
2023-06-10T21:06:50.345Z,4.77
2023-06-10T21:09:17.066Z,4.80
2023-06-10T21:11:43.806Z,4.63
2023-06-10T21:14:10.718Z,5.13
2023-06-10T21:16:38.286Z,4.37
2023-06-10T21:19:05.388Z,4.40
2023-06-10T21:21:32.129Z,4.27
2023-06-10T21:23:58.923Z,4.10
2023-06-10T21:26:26.179Z,3.83
2023-06-10T21:28:55.164Z,3.30
2023-06-10T21:31:21.967Z,3.70
2023-06-10T21:33:48.679Z,4.30
2023-06-10T21:36:18.780Z,3.53
2023-06-10T21:38:46.024Z,3.40
2023-06-10T21:41:12.685Z,3.77
2023-06-10T21:43:39.692Z,3.70
2023-06-10T21:46:06.461Z,3.93
2023-06-10T21:48:33.166Z,3.80
2023-06-10T21:50:59.838Z,3.83
2023-06-10T21:53:26.565Z,3.57
2023-06-10T21:55:53.357Z,4.10
2023-06-10T21:58:20.076Z,3.70
2023-06-10T22:00:46.866Z,3.73
2023-06-10T22:03:13.793Z,4.17
2023-06-10T22:05:40.577Z,4.00
2023-06-10T22:08:07.338Z,4.20
2023-06-10T22:10:34.185Z,4.07
2023-06-10T22:13:00.928Z,3.80
2023-06-10T22:15:27.627Z,3.83
2023-06-10T22:17:54.390Z,4.40
2023-06-10T22:20:21.386Z,4.23
2023-06-10T22:22:48.113Z,4.17
2023-06-10T22:25:15.573Z,12.10
2023-06-10T22:27:42.272Z,4.20
2023-06-10T22:30:09.173Z,4.23
2023-06-10T22:32:36.061Z,3.90
2023-06-10T22:35:06.692Z,4.17
2023-06-10T22:37:33.983Z,3.80
2023-06-10T22:40:01.121Z,4.00
2023-06-10T22:42:27.825Z,4.20
2023-06-10T22:44:54.542Z,4.10
2023-06-10T22:47:21.301Z,3.80
2023-06-10T22:49:48.004Z,4.03
2023-06-10T22:52:14.735Z,3.70
2023-06-10T22:54:42.068Z,4.10
2023-06-10T22:57:08.877Z,4.03
2023-06-10T22:59:35.790Z,4.00
2023-06-10T23:02:02.518Z,4.27
2023-06-10T23:04:29.354Z,3.70
2023-06-10T23:06:56.086Z,4.30
2023-06-10T23:09:22.777Z,3.90
2023-06-10T23:11:49.618Z,4.10
2023-06-10T23:14:16.287Z,4.30
2023-06-10T23:16:47.487Z,3.97
2023-06-10T23:19:18.892Z,4.70
2023-06-10T23:21:53.636Z,3.97
2023-06-10T23:24:21.544Z,4.27
2023-06-10T23:26:48.913Z,4.00
2023-06-10T23:29:15.850Z,5.07
2023-06-10T23:31:42.596Z,4.87
2023-06-10T23:34:09.378Z,4.50
2023-06-10T23:36:41.132Z,4.80
2023-06-10T23:39:08.611Z,4.93
2023-06-10T23:41:35.778Z,5.33
2023-06-10T23:44:03.095Z,5.10
2023-06-10T23:46:32.857Z,5.57
2023-06-10T23:49:02.411Z,5.03
2023-06-10T23:51:29.155Z,5.57
2023-06-10T23:53:55.845Z,5.43
2023-06-10T23:56:23.234Z,4.67
2023-06-10T23:58:50.395Z,5.27
